createdAt,value
2018-12-09T00:05:25.680Z,93.00
2018-12-09T00:11:31.307Z,92.00
2018-12-09T00:17:36.088Z,97.10
2018-12-09T00:23:40.349Z,96.20
2018-12-09T00:29:43.854Z,95.30
2018-12-09T00:35:48.481Z,91.90
2018-12-09T00:41:52.201Z,91.40
2018-12-09T00:47:55.690Z,94.50
2018-12-09T00:54:00.425Z,94.80
2018-12-09T01:00:05.391Z,91.20
2018-12-09T01:06:09.192Z,94.60
2018-12-09T01:12:14.584Z,92.90
2018-12-09T01:18:19.841Z,93.00
2018-12-09T01:24:24.127Z,90.80
2018-12-09T01:30:29.561Z,92.80
2018-12-09T01:36:34.823Z,92.80
2018-12-09T01:42:41.853Z,92.30
2018-12-09T01:48:45.978Z,91.40
2018-12-09T01:54:50.050Z,85.50
2018-12-09T02:00:57.284Z,91.80
2018-12-09T02:07:00.985Z,90.90
2018-12-09T02:13:05.608Z,91.50
2018-12-09T02:19:19.477Z,91.10
2018-12-09T02:25:25.801Z,91.70
2018-12-09T02:31:30.915Z,90.10
2018-12-09T02:37:37.576Z,91.40
2018-12-09T02:43:42.731Z,90.70
2018-12-09T02:49:46.982Z,84.40
2018-12-09T02:55:52.688Z,90.80
2018-12-09T03:01:57.315Z,91.50
2018-12-09T03:08:00.977Z,90.60
2018-12-09T03:14:05.507Z,90.80
2018-12-09T03:20:10.222Z,90.70
2018-12-09T03:26:13.746Z,90.50
2018-12-09T03:32:18.430Z,90.80
2018-12-09T03:38:24.887Z,90.10
2018-12-09T03:44:31.293Z,90.50
2018-12-09T03:50:35.612Z,91.00
2018-12-09T03:56:39.747Z,90.70
2018-12-09T04:02:46.701Z,89.30
2018-12-09T04:08:52.185Z,90.60
2018-12-09T04:14:56.239Z,91.20
2018-12-09T04:21:01.066Z,90.20
2018-12-09T04:27:05.347Z,91.50
2018-12-09T04:33:08.992Z,91.00
2018-12-09T04:39:14.292Z,92.60
2018-12-09T04:55:50.952Z,91.30
2018-12-09T05:01:55.131Z,90.90
2018-12-09T05:07:59.632Z,91.50
2018-12-09T05:14:03.217Z,90.30
2018-12-09T05:20:08.628Z,90.80
2018-12-09T05:26:12.088Z,90.50
2018-12-09T05:32:16.556Z,91.10
2018-12-09T05:38:20.940Z,90.40
2018-12-09T05:44:25.420Z,90.50
2018-12-09T05:50:29.002Z,85.20
2018-12-09T05:56:33.676Z,90.90
2018-12-09T06:02:51.833Z,91.50
2018-12-09T06:08:58.029Z,89.10
2018-12-09T06:15:04.752Z,90.50
2018-12-09T06:21:08.525Z,89.40
2018-12-09T06:27:14.110Z,89.50
2018-12-09T06:33:17.661Z,90.00
2018-12-09T06:39:22.323Z,88.40
2018-12-09T06:45:25.836Z,90.30
2018-12-09T06:51:29.611Z,88.30
2018-12-09T06:57:33.061Z,90.50
2018-12-09T07:03:36.696Z,90.90
2018-12-09T07:09:40.145Z,90.90
2018-12-09T07:15:43.613Z,85.20
2018-12-09T07:21:47.938Z,90.90
2018-12-09T07:27:52.621Z,91.80
2018-12-09T07:33:58.656Z,90.50
2018-12-09T07:40:03.322Z,89.80
2018-12-09T07:46:07.794Z,90.70
2018-12-09T07:52:12.133Z,85.70
2018-12-09T07:58:16.764Z,90.10
2018-12-09T08:04:20.607Z,90.10
2018-12-09T08:10:24.053Z,91.00
2018-12-09T08:16:27.517Z,90.40
2018-12-09T08:22:31.854Z,90.70
2018-12-09T08:28:35.563Z,91.50
2018-12-09T08:34:39.914Z,90.50
2018-12-09T08:40:43.450Z,90.90
2018-12-09T08:46:48.200Z,89.50
2018-12-09T08:52:51.674Z,90.20
2018-12-09T08:58:56.466Z,86.90
2018-12-09T09:04:59.914Z,90.30
2018-12-09T09:11:03.370Z,91.90
2018-12-09T09:17:07.281Z,91.10
2018-12-09T09:23:10.764Z,90.30
2018-12-09T09:29:15.353Z,93.00
2018-12-09T09:35:18.928Z,91.00
2018-12-09T09:41:23.572Z,90.60
2018-12-09T09:47:27.026Z,91.70
2018-12-09T09:53:32.097Z,93.20
2018-12-09T09:59:37.701Z,91.40
2018-12-09T10:05:41.217Z,93.70
2018-12-09T10:11:45.406Z,96.20
2018-12-09T10:17:48.861Z,93.80
2018-12-09T10:23:52.506Z,95.20
2018-12-09T10:29:56.012Z,95.70
2018-12-09T10:36:00.063Z,97.10
2018-12-09T10:42:04.258Z,97.70
2018-12-09T10:48:09.266Z,96.90
2018-12-09T10:54:13.779Z,96.40
2018-12-09T11:00:19.697Z,96.80
2018-12-09T11:06:24.935Z,97.60
2018-12-09T11:12:32.323Z,96.20
2018-12-09T11:18:36.138Z,97.10
2018-12-09T11:24:40.282Z,94.50
2018-12-09T11:30:43.748Z,97.20
2018-12-09T11:36:47.297Z,98.40
2018-12-09T11:42:51.850Z,98.30
2018-12-09T11:48:57.692Z,95.90
2018-12-09T11:55:01.208Z,95.20
2018-12-09T12:01:08.129Z,93.00
2018-12-09T12:07:12.056Z,93.50
2018-12-09T12:13:16.012Z,97.00
2018-12-09T12:19:20.225Z,94.30
2018-12-09T12:25:26.206Z,94.10
2018-12-09T12:31:29.650Z,96.20
2018-12-09T12:37:33.111Z,94.50
2018-12-09T12:43:37.541Z,94.70
2018-12-09T12:49:42.767Z,97.40
2018-12-09T12:55:46.937Z,95.80
2018-12-09T13:01:51.007Z,95.60
2018-12-09T13:07:54.637Z,95.70
2018-12-09T13:13:58.225Z,98.40
2018-12-09T13:20:01.699Z,93.20
2018-12-09T13:26:05.476Z,93.80
2018-12-09T13:32:09.700Z,94.20
2018-12-09T13:38:14.404Z,96.30
2018-12-09T13:44:18.165Z,96.10
2018-12-09T13:50:23.546Z,93.00
2018-12-09T13:56:27.301Z,97.10
2018-12-09T14:02:33.078Z,95.80
2018-12-09T14:08:37.510Z,92.00
2018-12-09T14:14:42.245Z,94.70
2018-12-09T14:20:45.950Z,96.20
2018-12-09T14:26:52.233Z,96.50
2018-12-09T14:32:57.273Z,93.10
2018-12-09T14:39:01.883Z,94.30
2018-12-09T14:45:07.253Z,95.70
2018-12-09T14:51:10.790Z,95.40
2018-12-09T14:57:14.234Z,96.30
2018-12-09T15:03:17.771Z,92.80
2018-12-09T15:09:23.404Z,96.30
2018-12-09T15:15:28.728Z,95.20
2018-12-09T15:21:32.323Z,95.80
2018-12-09T15:27:35.774Z,95.10
2018-12-09T15:33:39.874Z,94.70
2018-12-09T15:39:45.438Z,96.40
2018-12-09T15:45:48.917Z,91.90
2018-12-09T15:51:52.496Z,92.10
2018-12-09T15:57:56.179Z,92.10
2018-12-09T16:04:00.491Z,93.00
2018-12-09T16:10:04.723Z,95.40
2018-12-09T16:16:09.533Z,93.50
2018-12-09T16:22:14.848Z,93.60
2018-12-09T16:28:18.977Z,91.70
2018-12-09T16:34:23.546Z,93.00
2018-12-09T16:40:27.513Z,96.90
2018-12-09T16:46:31.828Z,92.40
2018-12-09T16:52:36.380Z,92.30
2018-12-09T16:58:40.343Z,92.60
2018-12-09T17:04:44.670Z,91.90
2018-12-09T17:10:48.398Z,92.30
2018-12-09T17:16:52.126Z,92.50
2018-12-09T17:22:55.633Z,93.70
2018-12-09T17:29:05.354Z,94.40
2018-12-09T17:35:05.404Z,94.20
2018-12-09T17:41:13.307Z,93.60
2018-12-09T17:47:16.958Z,93.60
2018-12-09T17:53:20.431Z,93.20
2018-12-09T17:59:26.972Z,92.50
2018-12-09T18:05:31.089Z,98.80
2018-12-09T18:11:34.558Z,99.90
2018-12-09T18:17:38.025Z,99.10
2018-12-09T18:23:41.562Z,96.20
2018-12-09T18:29:45.570Z,99.20
2018-12-09T18:35:51.202Z,93.80
2018-12-09T18:41:58.303Z,91.30
2018-12-09T18:48:04.642Z,92.60
2018-12-09T18:54:09.404Z,92.40
2018-12-09T19:00:13.043Z,92.00
2018-12-09T19:06:18.490Z,93.10
2018-12-09T19:12:23.255Z,93.50
2018-12-09T19:18:29.271Z,93.20
2018-12-09T19:24:34.309Z,93.20
2018-12-09T19:30:38.278Z,93.40
2018-12-09T19:36:45.509Z,92.90
2018-12-09T19:42:51.050Z,93.40
2018-12-09T19:48:54.906Z,92.20
2018-12-09T19:54:59.573Z,92.40
2018-12-09T20:01:03.908Z,93.10
2018-12-09T20:07:08.862Z,92.70
2018-12-09T20:13:12.906Z,93.00
2018-12-09T20:19:17.187Z,93.30
2018-12-09T20:25:21.645Z,93.40
2018-12-09T20:31:28.553Z,93.70
2018-12-09T20:37:32.015Z,93.70
2018-12-09T20:43:37.039Z,94.20
2018-12-09T20:49:41.133Z,93.00
2018-12-09T20:55:44.795Z,93.80
2018-12-09T21:01:49.923Z,94.60
2018-12-09T21:07:56.084Z,96.70
2018-12-09T21:14:01.202Z,94.50
2018-12-09T21:20:06.492Z,94.80
2018-12-09T21:26:10.746Z,95.50
2018-12-09T21:32:15.268Z,96.20
2018-12-09T21:38:18.952Z,96.30
2018-12-09T21:44:23.030Z,95.80
2018-12-09T21:50:26.868Z,95.60
2018-12-09T21:56:30.309Z,95.40
2018-12-09T22:02:33.735Z,95.90
2018-12-09T22:08:37.592Z,96.10
2018-12-09T22:14:42.049Z,96.40
2018-12-09T22:20:45.555Z,97.40
2018-12-09T22:26:50.222Z,97.50
2018-12-09T22:32:58.824Z,98.10
2018-12-09T22:39:02.829Z,97.90
2018-12-09T22:45:06.936Z,97.30
2018-12-09T22:51:13.562Z,97.80
2018-12-09T22:57:16.992Z,98.20
2018-12-09T23:03:24.221Z,98.30
2018-12-09T23:09:28.694Z,98.00
2018-12-09T23:15:32.984Z,97.80
2018-12-09T23:21:38.131Z,99.00
2018-12-09T23:27:42.544Z,98.20
2018-12-09T23:33:46.004Z,97.80
2018-12-09T23:39:49.668Z,99.90
2018-12-09T23:45:53.387Z,98.30
2018-12-09T23:52:00.662Z,97.80
2018-12-09T23:58:05.022Z,98.40
